Time;durP1;ratioP1;P1;durP2;ratioP2;P2;SDS_P1;SDS_P2;PMS_P1;PMS_P2;Temp;Humidity;BMP_temperature;BMP_pressure;BME280_temperature;BME280_humidity;BME280_pressure;Samples;Min_cycle;Max_cycle;Signal;HPM_P1;HPM_P2
2021/06/05 00:00:00;;;;;;;1.70;1.10;;;23.60;44.90;;;;;;5013120;28;20933;-59
2021/06/05 00:02:29;;;;;;;1.57;1.03;;;23.60;44.90;;;;;;5013226;28;20389;-59
2021/06/05 00:04:58;;;;;;;1.50;1.00;;;23.50;44.60;;;;;;5012721;28;20393;-60
2021/06/05 00:07:25;;;;;;;1.67;0.90;;;23.50;44.80;;;;;;5010730;28;20407;-60
2021/06/05 00:09:52;;;;;;;1.35;1.10;;;23.50;44.80;;;;;;5013270;28;20416;-59
2021/06/05 00:12:20;;;;;;;1.63;1.00;;;23.50;44.90;;;;;;5012951;28;20393;-59
2021/06/05 00:14:46;;;;;;;1.85;1.10;;;23.50;45.00;;;;;;5012552;28;20536;-59
2021/06/05 00:17:11;;;;;;;1.20;0.90;;;23.50;44.90;;;;;;5012792;28;20487;-59
2021/06/05 00:19:37;;;;;;;1.20;0.80;;;23.50;45.00;;;;;;5012807;28;20535;-59
2021/06/05 00:22:03;;;;;;;1.33;1.00;;;23.50;45.00;;;;;;5012823;28;20916;-59
2021/06/05 00:24:29;;;;;;;1.83;0.93;;;23.50;45.00;;;;;;5012778;28;20385;-59
2021/06/05 00:26:55;;;;;;;1.70;1.08;;;23.50;45.00;;;;;;5012358;28;20413;-59
2021/06/05 00:29:21;;;;;;;1.55;1.05;;;23.50;45.00;;;;;;5012931;28;20396;-59
2021/06/05 00:31:47;;;;;;;1.23;0.93;;;23.50;45.00;;;;;;5012556;28;20440;-61
2021/06/05 00:34:13;;;;;;;1.27;0.87;;;23.40;45.00;;;;;;5012066;28;20389;-59
2021/06/05 00:36:40;;;;;;;2.13;0.90;;;23.40;45.00;;;;;;5011967;28;20428;-59
2021/06/05 00:39:07;;;;;;;1.15;0.90;;;23.40;45.00;;;;;;5012570;28;20385;-59
2021/06/05 00:41:33;;;;;;;1.67;1.00;;;23.40;45.00;;;;;;5012686;28;20424;-59
2021/06/05 00:44:02;;;;;;;1.40;0.93;;;23.40;45.60;;;;;;5012149;28;20971;-59
2021/06/05 00:46:29;;;;;;;1.50;1.00;;;23.40;45.10;;;;;;5012263;28;20396;-59
2021/06/05 00:48:56;;;;;;;1.10;0.80;;;23.40;45.00;;;;;;5011918;28;20416;-59
2021/06/05 00:51:33;;;;;;;1.33;0.85;;;23.40;45.10;;;;;;5012423;28;20960;-60
2021/06/05 00:54:00;;;;;;;1.63;1.03;;;23.40;45.00;;;;;;5012106;28;20437;-59
2021/06/05 00:56:26;;;;;;;1.90;1.00;;;23.40;45.10;;;;;;5012028;28;20591;-59
2021/06/05 00:58:52;;;;;;;1.67;0.80;;;23.40;45.30;;;;;;5012438;28;20475;-59
2021/06/05 01:01:23;;;;;;;1.77;0.80;;;23.30;45.20;;;;;;5012986;28;20443;-59
2021/06/05 01:03:50;;;;;;;2.00;1.10;;;23.30;45.20;;;;;;5012981;28;20405;-59
2021/06/05 01:06:23;;;;;;;2.30;0.95;;;23.30;45.30;;;;;;5013248;28;20397;-59
2021/06/05 01:09:02;;;;;;;1.63;0.90;;;23.30;45.40;;;;;;5012429;28;20393;-58
2021/06/05 01:11:38;;;;;;;2.50;0.80;;;23.30;45.40;;;;;;5012793;28;20541;-58
2021/06/05 01:14:20;;;;;;;1.10;0.80;;;23.30;45.50;;;;;;5013078;28;20469;-59
2021/06/05 01:16:48;;;;;;;1.67;0.90;;;23.30;45.20;;;;;;5012439;28;20905;-59
2021/06/05 01:19:54;;;;;;;1.92;1.00;;;23.30;45.50;;;;;;5012728;28;20385;-59
2021/06/05 01:22:41;;;;;;;1.10;0.82;;;23.30;45.50;;;;;;5012976;28;20722;-58
2021/06/05 01:25:36;;;;;;;1.27;0.82;;;23.30;45.50;;;;;;5012538;28;20907;-58
2021/06/05 01:28:12;;;;;;;1.38;0.80;;;23.30;45.50;;;;;;5012087;28;20405;-58
2021/06/05 01:30:50;;;;;;;1.30;0.90;;;23.30;45.40;;;;;;5013103;28;20396;-58
2021/06/05 01:33:25;;;;;;;1.27;0.90;;;23.30;45.40;;;;;;5011226;28;20412;-59
2021/06/05 01:35:51;;;;;;;1.75;0.90;;;23.30;45.50;;;;;;5011262;28;20891;-59
2021/06/05 01:38:18;;;;;;;1.80;1.00;;;23.20;46.00;;;;;;5012623;28;20409;-58
2021/06/05 01:40:46;;;;;;;1.40;0.77;;;23.30;45.40;;;;;;5011119;28;20393;-58
2021/06/05 01:43:14;;;;;;;0.95;0.70;;;23.20;45.30;;;;;;5012293;28;20451;-58
2021/06/05 01:45:42;;;;;;;1.50;0.80;;;23.20;45.40;;;;;;5012599;28;20451;-58
2021/06/05 01:48:10;;;;;;;1.70;1.00;;;23.20;45.30;;;;;;5012433;28;20468;-59
2021/06/05 01:50:38;;;;;;;1.30;1.00;;;23.20;45.50;;;;;;5012461;28;20474;-59
2021/06/05 01:53:10;;;;;;;1.20;0.90;;;23.20;45.40;;;;;;5012057;28;20762;-59
2021/06/05 01:55:43;;;;;;;1.30;0.90;;;23.20;45.40;;;;;;5012266;28;20423;-59
2021/06/05 01:58:15;;;;;;;1.17;0.80;;;23.20;45.30;;;;;;5012480;28;20436;-59
2021/06/05 02:00:47;;;;;;;1.40;0.90;;;23.20;45.50;;;;;;5012166;28;20396;-59
2021/06/05 02:03:14;;;;;;;1.20;0.80;;;23.20;45.50;;;;;;5012041;28;20389;-59
2021/06/05 02:05:42;;;;;;;2.58;0.90;;;23.20;45.50;;;;;;5012109;28;20424;-59
2021/06/05 02:08:10;;;;;;;1.45;0.80;;;23.20;45.50;;;;;;5012200;28;20392;-59
2021/06/05 02:10:37;;;;;;;1.60;0.80;;;23.20;45.50;;;;;;5012202;28;20900;-59
2021/06/05 02:13:05;;;;;;;1.15;0.90;;;23.10;45.40;;;;;;5011748;28;20385;-59
2021/06/05 02:15:47;;;;;;;1.08;0.80;;;23.10;45.50;;;;;;5011981;28;20416;-59
2021/06/05 02:18:17;;;;;;;1.05;0.80;;;23.10;45.50;;;;;;5012083;28;20956;-59
2021/06/05 02:21:12;;;;;;;1.25;0.80;;;23.10;45.60;;;;;;5011786;28;20385;-59
2021/06/05 02:23:44;;;;;;;1.80;0.93;;;23.10;45.60;;;;;;5011629;28;20392;-59
2021/06/05 02:26:13;;;;;;;1.17;0.70;;;23.10;45.40;;;;;;5012072;28;20423;-59
2021/06/05 02:28:39;;;;;;;1.23;0.80;;;23.10;45.50;;;;;;5011939;28;20396;-59
2021/06/05 02:31:07;;;;;;;1.42;1.00;;;23.10;45.60;;;;;;5011553;28;20392;-59
2021/06/05 02:33:34;;;;;;;1.38;0.90;;;23.10;45.60;;;;;;5011781;28;20389;-59
2021/06/05 02:36:01;;;;;;;1.77;0.80;;;23.10;45.60;;;;;;5011842;28;20412;-59
2021/06/05 02:38:28;;;;;;;1.35;0.80;;;23.10;45.60;;;;;;5010597;28;20405;-58
2021/06/05 02:40:54;;;;;;;1.30;0.80;;;23.00;45.60;;;;;;5011572;28;20409;-58
2021/06/05 02:43:28;;;;;;;1.30;0.83;;;23.10;45.40;;;;;;5011729;28;20484;-59
2021/06/05 02:46:09;;;;;;;1.08;0.80;;;23.00;45.60;;;;;;5011836;28;20404;-59
2021/06/05 02:48:44;;;;;;;1.10;0.75;;;23.00;45.50;;;;;;5011868;28;20388;-59
2021/06/05 02:51:10;;;;;;;1.00;0.70;;;23.00;45.70;;;;;;5011614;28;20389;-58
2021/06/05 02:53:36;;;;;;;1.38;0.68;;;23.00;45.70;;;;;;5011737;28;20388;-59
2021/06/05 02:56:02;;;;;;;1.00;0.60;;;23.00;45.60;;;;;;5011612;28;20847;-59
2021/06/05 02:58:28;;;;;;;1.33;0.82;;;23.00;45.50;;;;;;5011627;28;20396;-58
2021/06/05 03:00:53;;;;;;;1.10;0.80;;;23.00;45.50;;;;;;5011379;28;20396;-58
2021/06/05 03:03:21;;;;;;;2.42;0.80;;;23.00;45.50;;;;;;5011425;28;20446;-58
2021/06/05 03:05:49;;;;;;;1.60;0.80;;;23.00;45.60;;;;;;5011607;28;20904;-58
2021/06/05 03:08:19;;;;;;;1.10;0.80;;;23.00;45.60;;;;;;5011595;28;20432;-59
2021/06/05 03:10:44;;;;;;;1.00;0.68;;;23.00;45.50;;;;;;5011394;28;20403;-58
2021/06/05 03:13:11;;;;;;;0.87;0.70;;;23.00;45.50;;;;;;5011270;28;20389;-58
2021/06/05 03:15:38;;;;;;;1.10;0.90;;;23.00;45.60;;;;;;5011326;28;20420;-58
2021/06/05 03:18:05;;;;;;;1.58;0.90;;;23.00;45.50;;;;;;5011500;28;20750;-58
2021/06/05 03:20:34;;;;;;;1.08;0.80;;;23.00;45.60;;;;;;5011429;28;20405;-58
2021/06/05 03:23:00;;;;;;;1.40;0.87;;;23.00;45.50;;;;;;5011066;28;20449;-58
2021/06/05 03:25:26;;;;;;;1.10;0.80;;;22.90;45.60;;;;;;5011318;28;20388;-58
2021/06/05 03:27:52;;;;;;;1.45;0.90;;;23.00;45.70;;;;;;5011471;28;20715;-58
2021/06/05 03:30:19;;;;;;;2.43;0.80;;;22.90;45.50;;;;;;5011505;28;20401;-58
2021/06/05 03:32:45;;;;;;;1.30;0.80;;;22.90;45.50;;;;;;5011452;28;20451;-58
2021/06/05 03:35:12;;;;;;;1.25;0.77;;;22.90;45.50;;;;;;5014768;28;20421;-59
2021/06/05 03:37:38;;;;;;;1.40;0.90;;;22.90;45.60;;;;;;5015007;28;20404;-59
2021/06/05 03:40:07;;;;;;;1.38;0.88;;;22.90;45.60;;;;;;5015107;28;20397;-59
2021/06/05 03:42:32;;;;;;;1.05;0.63;;;22.90;45.60;;;;;;5014756;28;20760;-59
2021/06/05 03:44:58;;;;;;;1.00;0.70;;;22.90;45.50;;;;;;5014306;28;20414;-58
2021/06/05 03:47:24;;;;;;;1.60;0.80;;;22.90;45.50;;;;;;5014835;28;20934;-59
2021/06/05 03:49:54;;;;;;;1.10;0.80;;;22.90;45.50;;;;;;5014717;28;20400;-59
2021/06/05 03:52:22;;;;;;;1.30;0.80;;;22.90;45.60;;;;;;5013490;28;20455;-59
2021/06/05 03:54:57;;;;;;;1.20;0.80;;;22.90;45.60;;;;;;5014346;28;20400;-59
2021/06/05 03:57:24;;;;;;;1.40;0.77;;;22.90;45.50;;;;;;5014513;28;20420;-59
2021/06/05 03:59:53;;;;;;;1.80;0.88;;;22.90;45.50;;;;;;5014630;28;20385;-59
2021/06/05 04:02:23;;;;;;;1.02;0.80;;;22.90;45.50;;;;;;5014574;28;20413;-59
2021/06/05 04:04:50;;;;;;;1.30;0.80;;;22.90;45.60;;;;;;5014230;28;20389;-58
2021/06/05 04:07:16;;;;;;;1.17;0.93;;;22.90;45.60;;;;;;5014163;28;20483;-59
2021/06/05 04:09:41;;;;;;;1.50;0.90;;;22.90;45.70;;;;;;5014318;28;20431;-59
2021/06/05 04:12:09;;;;;;;1.20;0.90;;;22.80;45.50;;;;;;5014418;28;20761;-59
2021/06/05 04:14:34;;;;;;;1.17;0.80;;;22.90;45.70;;;;;;5014260;28;20455;-59
2021/06/05 04:17:00;;;;;;;1.20;0.90;;;22.80;45.70;;;;;;5013729;28;20773;-59
2021/06/05 04:19:26;;;;;;;1.30;0.90;;;22.80;45.70;;;;;;5014269;28;20520;-59
2021/06/05 04:21:56;;;;;;;1.60;1.00;;;22.80;45.70;;;;;;5014249;28;20419;-58
2021/06/05 04:24:22;;;;;;;1.67;1.00;;;22.90;45.80;;;;;;5014130;28;20399;-58
2021/06/05 04:26:48;;;;;;;1.60;1.10;;;22.90;45.70;;;;;;5013874;28;20397;-59
2021/06/05 04:29:13;;;;;;;1.65;1.00;;;22.90;45.80;;;;;;5013758;28;20393;-58
2021/06/05 04:31:39;;;;;;;1.30;0.90;;;22.80;45.70;;;;;;5013809;28;20472;-58
2021/06/05 04:34:05;;;;;;;2.17;1.02;;;22.80;45.80;;;;;;5013873;28;20388;-58
2021/06/05 04:36:31;;;;;;;1.15;0.90;;;22.80;45.70;;;;;;5013721;28;20539;-59
2021/06/05 04:38:57;;;;;;;1.48;0.95;;;22.80;45.70;;;;;;5013661;28;20389;-59
2021/06/05 04:41:24;;;;;;;1.33;1.05;;;22.80;45.80;;;;;;5013567;28;20392;-59
2021/06/05 04:43:49;;;;;;;1.70;1.10;;;22.80;46.40;;;;;;5013412;28;20428;-59
2021/06/05 04:46:16;;;;;;;1.57;1.03;;;22.80;45.80;;;;;;5012878;28;20427;-58
2021/06/05 04:48:44;;;;;;;1.55;1.10;;;22.80;46.40;;;;;;5013634;28;20442;-58
2021/06/05 04:51:11;;;;;;;1.00;0.90;;;22.80;45.80;;;;;;5013071;28;20392;-58
2021/06/05 04:53:37;;;;;;;1.48;1.10;;;22.80;45.80;;;;;;5013498;28;20393;-58
2021/06/05 04:56:03;;;;;;;1.53;1.10;;;22.80;45.90;;;;;;5013343;28;20449;-59
2021/06/05 04:58:30;;;;;;;1.67;1.20;;;22.80;45.90;;;;;;5013276;28;20509;-59
2021/06/05 05:00:56;;;;;;;1.73;1.10;;;22.80;45.80;;;;;;5013043;28;20401;-59
2021/06/05 05:03:24;;;;;;;1.67;1.05;;;22.80;45.90;;;;;;5013027;28;20484;-58
2021/06/05 05:05:52;;;;;;;1.90;1.05;;;22.80;45.80;;;;;;5013249;28;20424;-58
2021/06/05 05:08:19;;;;;;;1.20;1.02;;;22.80;45.90;;;;;;5013192;28;20389;-58
2021/06/05 05:10:48;;;;;;;1.90;1.20;;;22.80;45.80;;;;;;5013107;28;20393;-58
2021/06/05 05:13:17;;;;;;;1.70;1.40;;;22.80;45.90;;;;;;5012836;28;20389;-58
2021/06/05 05:15:43;;;;;;;1.20;0.98;;;22.80;45.90;;;;;;5012995;28;20421;-58
2021/06/05 05:18:10;;;;;;;1.37;1.03;;;22.80;45.80;;;;;;5013122;28;20393;-59
2021/06/05 05:20:37;;;;;;;1.58;1.10;;;22.80;45.90;;;;;;5013060;28;20389;-59
2021/06/05 05:23:05;;;;;;;1.65;1.20;;;22.80;45.80;;;;;;5012633;28;20389;-59
2021/06/05 05:25:31;;;;;;;1.60;1.10;;;22.80;45.90;;;;;;5012920;28;20471;-59
2021/06/05 05:27:58;;;;;;;1.60;1.10;;;22.80;45.90;;;;;;5013191;28;20393;-59
2021/06/05 05:30:29;;;;;;;1.48;1.20;;;22.80;45.90;;;;;;5012910;28;20392;-59
2021/06/05 05:32:54;;;;;;;1.70;1.30;;;22.80;46.00;;;;;;5012565;28;20413;-59
2021/06/05 05:35:20;;;;;;;1.47;1.20;;;22.80;46.00;;;;;;5012448;28;20484;-59
2021/06/05 05:37:46;;;;;;;1.80;1.30;;;22.80;46.60;;;;;;5012727;28;20396;-59
2021/06/05 05:40:13;;;;;;;2.40;1.40;;;22.80;45.90;;;;;;5012671;28;20476;-59
2021/06/05 05:42:39;;;;;;;2.20;1.40;;;22.80;46.00;;;;;;5012551;28;20392;-59
2021/06/05 05:45:07;;;;;;;2.20;1.50;;;22.80;46.90;;;;;;5011878;28;20479;-59
2021/06/05 05:47:32;;;;;;;5.10;1.70;;;22.90;47.20;;;;;;5012484;28;20432;-59
2021/06/05 05:49:58;;;;;;;4.53;1.70;;;22.90;47.70;;;;;;5012520;28;20417;-59
2021/06/05 05:52:24;;;;;;;4.85;1.90;;;22.90;48.30;;;;;;5012652;28;20439;-59
2021/06/05 05:54:49;;;;;;;3.47;1.93;;;22.90;48.50;;;;;;5012101;28;20737;-59
2021/06/05 05:57:15;;;;;;;3.60;1.85;;;22.90;49.00;;;;;;5011867;28;20405;-59
2021/06/05 05:59:41;;;;;;;3.60;1.70;;;22.90;49.10;;;;;;5012338;28;20381;-59
2021/06/05 06:02:07;;;;;;;5.93;1.80;;;22.90;49.20;;;;;;5012169;28;20745;-59
2021/06/05 06:04:33;;;;;;;3.42;1.60;;;23.00;49.20;;;;;;5012058;28;20393;-60
2021/06/05 06:06:58;;;;;;;3.35;1.67;;;22.90;49.10;;;;;;5010815;28;20396;-59
2021/06/05 06:09:24;;;;;;;3.40;1.50;;;22.90;48.90;;;;;;5010719;28;20443;-59
2021/06/05 06:11:50;;;;;;;4.85;1.65;;;23.00;48.70;;;;;;5011974;28;20496;-59
2021/06/05 06:14:16;;;;;;;2.73;1.70;;;23.00;49.10;;;;;;5012149;28;20745;-59
2021/06/05 06:16:42;;;;;;;7.73;2.00;;;23.00;49.30;;;;;;5011954;28;20559;-59
2021/06/05 06:19:12;;;;;;;2.47;1.50;;;23.00;49.30;;;;;;5011564;28;20479;-60
2021/06/05 06:21:38;;;;;;;3.97;1.58;;;23.00;49.60;;;;;;5010736;28;20399;-59
2021/06/05 06:24:04;;;;;;;6.47;1.88;;;23.00;50.20;;;;;;5011948;28;20397;-59
2021/06/05 06:26:30;;;;;;;9.13;1.70;;;23.10;50.40;;;;;;5011815;28;20396;-59
2021/06/05 06:28:59;;;;;;;10.55;1.85;;;23.10;50.40;;;;;;5011520;28;20393;-60
2021/06/05 06:31:25;;;;;;;8.15;1.80;;;23.20;50.90;;;;;;5011566;28;20397;-59
2021/06/05 06:33:51;;;;;;;7.88;1.90;;;23.30;51.20;;;;;;5010480;28;20407;-59
2021/06/05 06:36:19;;;;;;;8.00;2.00;;;23.40;51.20;;;;;;5011644;28;20424;-59
2021/06/05 06:38:48;;;;;;;7.03;1.83;;;23.50;51.40;;;;;;5011714;28;20385;-59
2021/06/05 06:41:18;;;;;;;10.40;1.92;;;23.50;51.00;;;;;;5011271;28;20451;-59
2021/06/05 06:43:44;;;;;;;6.72;1.67;;;23.60;51.00;;;;;;5010299;28;20463;-59
2021/06/05 06:46:17;;;;;;;5.22;1.70;;;23.60;50.50;;;;;;5011916;28;20388;-58
2021/06/05 06:48:44;;;;;;;4.07;1.57;;;23.60;50.40;;;;;;5011564;28;20385;-59
2021/06/05 06:51:09;;;;;;;5.35;1.67;;;23.60;51.20;;;;;;5011051;28;20397;-59
2021/06/05 06:53:36;;;;;;;5.07;1.60;;;23.70;50.40;;;;;;5011508;28;20391;-59
2021/06/05 06:56:04;;;;;;;4.72;1.40;;;23.60;50.10;;;;;;5010273;28;20426;-59
2021/06/05 06:58:30;;;;;;;4.45;1.77;;;23.70;50.50;;;;;;5010249;28;20908;-59
2021/06/05 07:00:55;;;;;;;6.65;1.60;;;23.70;50.20;;;;;;5011112;28;20401;-60
2021/06/05 07:03:21;;;;;;;4.47;1.60;;;23.80;50.40;;;;;;5011134;28;20497;-59
2021/06/05 07:05:47;;;;;;;5.50;1.50;;;23.80;50.40;;;;;;5010235;28;20417;-64
2021/06/05 07:08:17;;;;;;;4.90;1.60;;;23.80;50.30;;;;;;5012526;28;20940;-59
2021/06/05 07:10:43;;;;;;;5.00;2.00;;;23.80;50.20;;;;;;5015033;28;20396;-59
2021/06/05 07:13:09;;;;;;;4.07;1.70;;;23.90;49.90;;;;;;5014752;28;20388;-61
2021/06/05 07:15:36;;;;;;;4.13;1.70;;;23.90;50.10;;;;;;5015126;28;20412;-59
2021/06/05 07:18:02;;;;;;;6.80;1.50;;;23.80;49.80;;;;;;5015295;28;20385;-61
2021/06/05 07:20:29;;;;;;;5.82;1.50;;;23.80;50.00;;;;;;5012747;28;20405;-59
2021/06/05 07:22:55;;;;;;;7.85;1.60;;;23.90;50.10;;;;;;5012056;28;20431;-60
2021/06/05 07:25:21;;;;;;;4.90;1.40;;;23.90;49.60;;;;;;5012292;28;20424;-59
2021/06/05 07:27:48;;;;;;;3.35;1.30;;;24.00;49.40;;;;;;5014705;28;20443;-60
2021/06/05 07:30:14;;;;;;;5.80;1.58;;;24.00;49.70;;;;;;5013388;28;20608;-59
2021/06/05 07:32:41;;;;;;;3.73;1.40;;;24.10;49.20;;;;;;5012832;28;20397;-59
2021/06/05 07:35:07;;;;;;;4.32;1.30;;;24.10;48.70;;;;;;5014401;28;20389;-59
2021/06/05 07:37:33;;;;;;;4.60;1.50;;;24.10;48.80;;;;;;5013971;28;20412;-60
2021/06/05 07:40:02;;;;;;;4.13;1.58;;;24.10;48.90;;;;;;5012695;28;20388;-59
2021/06/05 07:42:27;;;;;;;4.78;1.70;;;24.10;48.90;;;;;;5009885;28;20750;-59
2021/06/05 07:44:53;;;;;;;3.40;1.52;;;24.10;48.70;;;;;;5011973;28;20423;-59
2021/06/05 07:47:19;;;;;;;6.17;1.53;;;24.10;48.60;;;;;;5011927;28;20819;-59
2021/06/05 07:49:47;;;;;;;6.05;1.50;;;24.10;48.30;;;;;;5012105;28;20396;-59
2021/06/05 07:52:13;;;;;;;6.85;1.50;;;24.10;48.00;;;;;;5012142;28;20404;-59
2021/06/05 07:54:39;;;;;;;5.93;1.50;;;24.10;48.00;;;;;;5010551;28;20907;-59
2021/06/05 07:57:05;;;;;;;3.08;1.40;;;24.00;47.60;;;;;;5011647;28;20463;-59
2021/06/05 07:59:31;;;;;;;3.63;1.40;;;24.00;48.00;;;;;;5012038;28;20396;-59
2021/06/05 08:01:57;;;;;;;4.85;1.30;;;24.00;47.30;;;;;;5011871;28;20400;-59
2021/06/05 08:04:23;;;;;;;3.40;1.50;;;24.00;47.60;;;;;;5011807;28;20385;-59
2021/06/05 08:06:49;;;;;;;5.63;1.40;;;24.00;47.00;;;;;;5010659;28;20415;-60
2021/06/05 08:09:16;;;;;;;3.28;1.35;;;24.00;47.00;;;;;;5011854;28;20448;-59
2021/06/05 08:11:42;;;;;;;4.90;1.45;;;24.00;46.90;;;;;;5011753;28;20785;-59
2021/06/05 08:14:08;;;;;;;5.03;1.48;;;24.10;46.80;;;;;;5011753;28;20881;-59
2021/06/05 08:16:37;;;;;;;3.08;1.40;;;24.10;46.70;;;;;;5011083;28;20428;-59
2021/06/05 08:19:11;;;;;;;4.53;1.40;;;24.10;46.60;;;;;;5010729;28;20389;-59
2021/06/05 08:21:42;;;;;;;3.83;1.20;;;24.10;46.50;;;;;;5011006;28;20455;-59
2021/06/05 08:24:11;;;;;;;5.20;1.42;;;24.10;46.40;;;;;;5009431;28;20462;-59
2021/06/05 08:26:38;;;;;;;4.00;1.45;;;24.20;46.30;;;;;;5011658;28;21099;-59
2021/06/05 08:29:04;;;;;;;3.20;1.40;;;24.20;46.10;;;;;;5011245;28;20393;-59
2021/06/05 08:31:30;;;;;;;5.00;1.52;;;24.20;46.10;;;;;;5011346;28;20415;-59
2021/06/05 08:33:55;;;;;;;3.13;1.23;;;24.20;46.00;;;;;;5011645;28;20735;-59
2021/06/05 08:36:24;;;;;;;2.70;1.40;;;24.20;45.90;;;;;;5011279;28;20416;-59
2021/06/05 08:38:50;;;;;;;2.13;1.50;;;24.30;45.80;;;;;;5011533;28;20476;-59
2021/06/05 08:41:33;;;;;;;4.93;1.40;;;24.30;45.80;;;;;;5010762;28;20969;-59
2021/06/05 08:44:06;;;;;;;3.85;1.30;;;24.30;45.70;;;;;;5010061;28;20409;-59
2021/06/05 08:46:47;;;;;;;2.00;1.23;;;24.30;45.70;;;;;;5009246;28;20475;-59
2021/06/05 08:49:21;;;;;;;3.03;1.45;;;24.30;45.50;;;;;;5010776;28;20393;-59
2021/06/05 08:51:59;;;;;;;2.88;1.35;;;24.40;45.50;;;;;;5011072;28;20389;-60
2021/06/05 08:54:30;;;;;;;2.15;1.20;;;24.40;45.50;;;;;;5010883;28;20429;-59
2021/06/05 08:57:18;;;;;;;3.40;1.27;;;24.40;45.40;;;;;;5012024;28;20419;-60
2021/06/05 08:59:46;;;;;;;2.42;1.30;;;24.40;45.30;;;;;;5001945;28;20396;-59
2021/06/05 09:02:12;;;;;;;2.45;1.30;;;24.40;45.30;;;;;;5011989;28;20439;-59
2021/06/05 09:04:38;;;;;;;2.28;1.20;;;24.40;45.20;;;;;;5012010;28;20400;-59
2021/06/05 09:07:08;;;;;;;2.28;1.20;;;24.40;45.20;;;;;;5011763;28;20793;-60
2021/06/05 09:09:40;;;;;;;2.28;1.30;;;24.40;45.10;;;;;;5011588;28;20408;-59
2021/06/05 09:12:07;;;;;;;1.40;1.00;;;24.40;45.10;;;;;;5012175;28;20407;-60
2021/06/05 09:14:33;;;;;;;2.95;1.25;;;24.40;45.00;;;;;;5010515;28;20497;-59
2021/06/05 09:17:02;;;;;;;2.80;1.10;;;24.40;44.90;;;;;;5011795;28;20563;-59
2021/06/05 09:19:32;;;;;;;1.70;1.20;;;24.40;44.90;;;;;;5011237;28;20438;-59
2021/06/05 09:22:07;;;;;;;2.40;1.33;;;24.50;44.90;;;;;;5010422;28;20412;-59
2021/06/05 09:24:37;;;;;;;2.35;1.38;;;24.50;44.70;;;;;;5009781;28;20928;-59
2021/06/05 09:27:19;;;;;;;3.05;1.25;;;24.50;44.70;;;;;;5011123;28;20400;-59
2021/06/05 09:29:47;;;;;;;2.05;1.10;;;24.60;44.70;;;;;;5011461;28;20753;-59
2021/06/05 09:32:16;;;;;;;2.08;1.30;;;24.60;44.60;;;;;;5011068;28;20463;-59
2021/06/05 09:34:52;;;;;;;2.25;1.08;;;24.60;44.40;;;;;;5012313;28;21073;-59
2021/06/05 09:37:29;;;;;;;2.40;1.13;;;24.70;44.40;;;;;;5012133;28;20820;-60
2021/06/05 09:40:01;;;;;;;1.60;1.17;;;24.70;44.30;;;;;;5012104;28;20400;-59
2021/06/05 09:42:34;;;;;;;1.75;1.00;;;24.70;44.10;;;;;;5012416;28;20389;-59
2021/06/05 09:45:01;;;;;;;4.93;1.30;;;24.80;43.90;;;;;;5012237;28;20503;-60
2021/06/05 09:47:31;;;;;;;1.65;0.95;;;24.80;44.50;;;;;;5011999;28;20527;-59
2021/06/05 09:50:18;;;;;;;2.25;1.00;;;24.90;43.80;;;;;;5012388;28;20440;-59
2021/06/05 09:52:44;;;;;;;2.63;1.13;;;24.90;43.60;;;;;;5011980;28;20945;-59
2021/06/05 09:55:15;;;;;;;3.05;1.05;;;25.00;43.50;;;;;;5011860;28;20385;-59
2021/06/05 09:57:44;;;;;;;3.23;1.00;;;25.00;43.60;;;;;;5012020;28;20408;-59
2021/06/05 10:00:29;;;;;;;2.88;1.30;;;25.10;43.60;;;;;;5012287;28;20391;-59
2021/06/05 10:03:21;;;;;;;4.20;1.30;;;25.10;43.70;;;;;;5012264;28;20397;-59
2021/06/05 10:05:50;;;;;;;4.38;1.50;;;25.20;43.70;;;;;;5012172;28;20396;-59
2021/06/05 10:08:48;;;;;;;3.50;1.33;;;25.30;43.70;;;;;;5012159;28;20746;-59
2021/06/05 10:11:25;;;;;;;4.35;1.30;;;25.30;44.20;;;;;;5010478;28;20757;-59
2021/06/05 10:14:23;;;;;;;9.13;1.65;;;25.40;44.50;;;;;;5011099;28;20416;-60
2021/06/05 10:17:02;;;;;;;4.85;1.65;;;25.40;44.80;;;;;;4977136;28;20497;-59
2021/06/05 10:19:45;;;;;;;7.87;1.70;;;25.40;45.20;;;;;;5008853;28;20397;-59
2021/06/05 10:22:12;;;;;;;3.83;1.50;;;25.50;45.20;;;;;;5010568;28;20852;-59
2021/06/05 10:24:50;;;;;;;6.65;1.70;;;25.50;45.30;;;;;;5010604;28;20489;-59
2021/06/05 10:27:25;;;;;;;7.85;1.60;;;25.50;45.30;;;;;;5010422;28;20510;-59
2021/06/05 10:29:58;;;;;;;4.60;1.42;;;25.60;45.40;;;;;;5011354;28;20396;-59
2021/06/05 10:32:37;;;;;;;4.93;1.67;;;25.60;45.30;;;;;;5010516;28;20480;-59
2021/06/05 10:35:27;;;;;;;4.43;1.42;;;25.60;45.20;;;;;;5011935;28;20420;-59
2021/06/05 10:38:04;;;;;;;4.15;1.60;;;25.70;45.10;;;;;;5011864;28;20381;-59
2021/06/05 10:40:29;;;;;;;4.43;1.55;;;25.70;45.10;;;;;;5011745;28;20398;-59
2021/06/05 10:42:56;;;;;;;4.45;1.48;;;25.70;45.00;;;;;;5011185;28;20381;-60
2021/06/05 10:45:37;;;;;;;4.93;1.50;;;25.80;45.00;;;;;;5011316;28;20410;-59
2021/06/05 10:48:15;;;;;;;2.70;1.48;;;25.70;44.80;;;;;;5011721;28;20442;-59
2021/06/05 10:50:45;;;;;;;4.68;1.60;;;25.80;44.70;;;;;;5010306;28;20814;-59
2021/06/05 10:53:25;;;;;;;3.33;1.50;;;25.80;44.50;;;;;;5011459;28;20407;-59
2021/06/05 10:55:55;;;;;;;3.33;1.70;;;25.80;44.70;;;;;;5011330;28;20442;-59
2021/06/05 10:58:36;;;;;;;2.50;1.53;;;25.70;44.70;;;;;;5010811;28;20472;-60
2021/06/05 11:01:06;;;;;;;3.40;1.60;;;25.70;44.70;;;;;;5010092;28;20399;-60
2021/06/05 11:03:32;;;;;;;2.78;1.60;;;25.60;44.60;;;;;;5011055;28;20393;-60
2021/06/05 11:06:05;;;;;;;2.63;1.50;;;25.60;44.60;;;;;;5011505;28;20887;-59
2021/06/05 11:08:35;;;;;;;3.90;1.63;;;25.60;44.70;;;;;;5011354;28;20473;-59
2021/06/05 11:11:01;;;;;;;3.45;1.30;;;25.60;44.80;;;;;;5011487;28;20381;-60
2021/06/05 11:13:35;;;;;;;2.25;1.40;;;25.60;45.00;;;;;;5010976;28;20443;-59
2021/06/05 11:16:13;;;;;;;2.95;1.50;;;25.60;44.60;;;;;;5011470;28;20419;-59
2021/06/05 11:18:43;;;;;;;4.22;1.65;;;25.60;44.60;;;;;;5011350;28;20397;-60
2021/06/05 11:21:26;;;;;;;2.80;1.50;;;25.70;44.60;;;;;;5011473;28;20430;-59
2021/06/05 11:23:58;;;;;;;2.10;1.40;;;25.70;44.50;;;;;;5011500;28;20401;-60
2021/06/05 11:26:36;;;;;;;3.47;1.48;;;25.70;44.50;;;;;;5011385;28;20508;-59
2021/06/05 11:29:10;;;;;;;3.97;1.50;;;25.80;44.40;;;;;;5011180;28;20397;-59
2021/06/05 11:31:45;;;;;;;4.85;1.50;;;25.90;44.60;;;;;;5010920;28;20385;-59
2021/06/05 11:34:33;;;;;;;4.90;1.67;;;25.90;44.30;;;;;;5011340;28;20400;-59
2021/06/05 11:37:03;;;;;;;3.45;1.58;;;26.00;44.50;;;;;;5011173;28;20413;-59
2021/06/05 11:39:29;;;;;;;4.53;1.37;;;26.00;44.50;;;;;;5010702;28;20400;-59
2021/06/05 11:42:19;;;;;;;6.80;1.65;;;26.10;44.60;;;;;;5009898;28;20393;-59
2021/06/05 11:44:57;;;;;;;4.88;1.60;;;26.20;44.60;;;;;;4991899;28;20419;-59
2021/06/05 11:47:23;;;;;;;5.10;1.42;;;26.10;44.70;;;;;;5010889;28;20776;-59
2021/06/05 11:50:07;;;;;;;3.30;1.60;;;25.90;44.80;;;;;;5010776;28;20443;-59
2021/06/05 11:52:49;;;;;;;2.90;1.30;;;25.80;45.10;;;;;;5011039;28;20448;-59
2021/06/05 11:55:24;;;;;;;5.70;1.60;;;25.70;45.10;;;;;;5013152;28;20392;-59
2021/06/05 11:57:52;;;;;;;7.43;1.70;;;25.70;45.40;;;;;;5012448;28;20400;-66
2021/06/05 12:00:32;;;;;;;7.07;1.70;;;25.60;45.30;;;;;;5009343;28;20389;-62
2021/06/05 12:03:19;;;;;;;5.03;1.60;;;25.60;45.40;;;;;;5011970;28;20393;-59
2021/06/05 12:05:44;;;;;;;10.23;1.93;;;25.60;47.20;;;;;;5010605;28;20404;-59
2021/06/05 12:08:29;;;;;;;9.18;2.17;;;25.60;46.00;;;;;;5014365;28;20393;-59
2021/06/05 12:10:58;;;;;;;7.88;1.90;;;25.60;45.80;;;;;;5013116;28;20412;-59
2021/06/05 12:13:35;;;;;;;7.75;2.13;;;25.50;45.80;;;;;;5013441;28;20393;-59
2021/06/05 12:16:13;;;;;;;4.38;1.83;;;25.50;45.90;;;;;;5011258;28;20405;-59
2021/06/05 12:18:39;;;;;;;5.35;1.60;;;25.40;45.70;;;;;;5013671;28;20396;-59
2021/06/05 12:21:23;;;;;;;5.05;1.88;;;25.40;45.90;;;;;;5014010;28;20385;-59
2021/06/05 12:23:49;;;;;;;6.97;2.10;;;25.40;45.60;;;;;;5012472;28;20753;-60
2021/06/05 12:26:21;;;;;;;4.00;2.00;;;25.40;46.40;;;;;;5013543;28;20404;-59
2021/06/05 12:28:54;;;;;;;4.33;2.00;;;25.30;45.70;;;;;;5013660;28;20396;-60
2021/06/05 12:31:31;;;;;;;3.72;1.85;;;25.30;45.60;;;;;;5014056;28;20389;-59
2021/06/05 12:34:13;;;;;;;3.65;1.98;;;25.30;45.40;;;;;;5014538;28;20428;-59
2021/06/05 12:36:44;;;;;;;3.33;1.73;;;25.30;45.40;;;;;;5013533;28;20956;-59
2021/06/05 12:39:18;;;;;;;2.42;1.85;;;25.20;45.30;;;;;;5012883;28;20380;-61
2021/06/05 12:41:48;;;;;;;4.13;1.97;;;25.20;45.50;;;;;;5007172;28;20389;-59
2021/06/05 12:44:16;;;;;;;3.42;1.60;;;25.20;45.60;;;;;;5013168;28;20400;-59
2021/06/05 12:46:42;;;;;;;4.88;1.80;;;25.20;45.60;;;;;;5013155;28;20414;-59
2021/06/05 12:49:11;;;;;;;4.28;1.73;;;25.20;45.70;;;;;;5013649;28;20492;-63
2021/06/05 12:51:45;;;;;;;2.30;1.60;;;25.10;45.50;;;;;;5012992;28;20464;-59
2021/06/05 12:54:28;;;;;;;3.15;1.60;;;25.10;45.40;;;;;;5013668;28;20710;-59
2021/06/05 12:56:55;;;;;;;4.72;1.80;;;25.10;45.40;;;;;;5013350;28;20525;-59
2021/06/05 12:59:34;;;;;;;2.88;1.58;;;25.00;45.30;;;;;;5013228;28;20397;-59